sensor_id;sensor_type;location;lat;lon;timestamp;P1;durP1;ratioP1;P2;durP2;ratioP2
14714;SDS011;7448;52.698;5.186;2022-12-18T00:01:35;129.77;;;32.78;;
14714;SDS011;7448;52.698;5.186;2022-12-18T00:04:02;116.60;;;33.20;;
14714;SDS011;7448;52.698;5.186;2022-12-18T00:06:32;119.80;;;32.67;;
14714;SDS011;7448;52.698;5.186;2022-12-18T00:08:58;122.65;;;34.83;;
14714;SDS011;7448;52.698;5.186;2022-12-18T00:11:27;128.25;;;32.72;;
14714;SDS011;7448;52.698;5.186;2022-12-18T00:13:54;131.43;;;36.38;;
14714;SDS011;7448;52.698;5.186;2022-12-18T00:16:22;123.78;;;31.73;;
14714;SDS011;7448;52.698;5.186;2022-12-18T00:18:49;126.07;;;32.15;;
14714;SDS011;7448;52.698;5.186;2022-12-18T00:21:16;120.75;;;32.75;;
14714;SDS011;7448;52.698;5.186;2022-12-18T00:23:43;124.82;;;31.85;;
14714;SDS011;7448;52.698;5.186;2022-12-18T00:26:11;119.43;;;31.77;;
14714;SDS011;7448;52.698;5.186;2022-12-18T00:28:38;124.80;;;31.88;;
14714;SDS011;7448;52.698;5.186;2022-12-18T00:31:05;113.95;;;30.73;;
14714;SDS011;7448;52.698;5.186;2022-12-18T00:33:32;111.63;;;30.23;;
14714;SDS011;7448;52.698;5.186;2022-12-18T00:38:44;120.50;;;31.90;;
14714;SDS011;7448;52.698;5.186;2022-12-18T00:41:12;114.45;;;31.27;;
14714;SDS011;7448;52.698;5.186;2022-12-18T00:43:39;112.75;;;32.22;;
14714;SDS011;7448;52.698;5.186;2022-12-18T00:46:06;119.40;;;31.15;;
14714;SDS011;7448;52.698;5.186;2022-12-18T00:48:32;119.15;;;30.75;;
14714;SDS011;7448;52.698;5.186;2022-12-18T00:50:59;121.43;;;32.72;;
14714;SDS011;7448;52.698;5.186;2022-12-18T00:53:25;120.60;;;31.98;;
14714;SDS011;7448;52.698;5.186;2022-12-18T00:55:51;101.75;;;30.35;;
14714;SDS011;7448;52.698;5.186;2022-12-18T00:58:18;97.28;;;29.05;;
14714;SDS011;7448;52.698;5.186;2022-12-18T01:00:44;106.68;;;30.92;;
14714;SDS011;7448;52.698;5.186;2022-12-18T01:03:12;105.85;;;30.23;;
14714;SDS011;7448;52.698;5.186;2022-12-18T01:05:39;116.47;;;31.48;;
14714;SDS011;7448;52.698;5.186;2022-12-18T01:08:06;119.75;;;30.65;;
14714;SDS011;7448;52.698;5.186;2022-12-18T01:10:32;110.13;;;31.13;;
14714;SDS011;7448;52.698;5.186;2022-12-18T01:12:59;111.07;;;32.35;;
14714;SDS011;7448;52.698;5.186;2022-12-18T01:15:25;108.00;;;31.25;;
14714;SDS011;7448;52.698;5.186;2022-12-18T01:17:52;120.82;;;32.83;;
14714;SDS011;7448;52.698;5.186;2022-12-18T01:20:19;125.45;;;32.47;;
14714;SDS011;7448;52.698;5.186;2022-12-18T01:22:46;106.35;;;31.00;;
14714;SDS011;7448;52.698;5.186;2022-12-18T01:25:12;105.07;;;30.98;;
14714;SDS011;7448;52.698;5.186;2022-12-18T01:27:38;113.93;;;32.67;;
14714;SDS011;7448;52.698;5.186;2022-12-18T01:30:05;112.45;;;30.60;;
14714;SDS011;7448;52.698;5.186;2022-12-18T01:32:32;113.82;;;31.38;;
14714;SDS011;7448;52.698;5.186;2022-12-18T01:34:58;119.88;;;31.42;;
14714;SDS011;7448;52.698;5.186;2022-12-18T01:37:25;119.43;;;31.38;;
14714;SDS011;7448;52.698;5.186;2022-12-18T01:39:52;111.70;;;31.60;;
14714;SDS011;7448;52.698;5.186;2022-12-18T01:42:20;102.38;;;30.35;;
14714;SDS011;7448;52.698;5.186;2022-12-18T01:45:06;107.22;;;28.00;;
14714;SDS011;7448;52.698;5.186;2022-12-18T01:47:35;105.35;;;30.33;;
14714;SDS011;7448;52.698;5.186;2022-12-18T01:50:04;114.95;;;32.90;;
14714;SDS011;7448;52.698;5.186;2022-12-18T01:52:31;110.03;;;28.38;;
14714;SDS011;7448;52.698;5.186;2022-12-18T01:54:59;103.05;;;29.77;;
14714;SDS011;7448;52.698;5.186;2022-12-18T01:57:26;104.25;;;29.42;;
14714;SDS011;7448;52.698;5.186;2022-12-18T01:59:53;110.72;;;31.23;;
14714;SDS011;7448;52.698;5.186;2022-12-18T02:02:22;110.13;;;32.03;;
14714;SDS011;7448;52.698;5.186;2022-12-18T02:04:48;114.60;;;28.63;;
14714;SDS011;7448;52.698;5.186;2022-12-18T02:07:17;101.15;;;28.25;;
14714;SDS011;7448;52.698;5.186;2022-12-18T02:09:48;99.18;;;28.70;;
14714;SDS011;7448;52.698;5.186;2022-12-18T02:12:18;97.05;;;30.48;;
14714;SDS011;7448;52.698;5.186;2022-12-18T02:17:32;106.70;;;29.48;;
14714;SDS011;7448;52.698;5.186;2022-12-18T02:22:29;102.00;;;30.23;;
14714;SDS011;7448;52.698;5.186;2022-12-18T02:25:02;97.70;;;30.67;;
14714;SDS011;7448;52.698;5.186;2022-12-18T02:27:32;105.38;;;30.10;;
14714;SDS011;7448;52.698;5.186;2022-12-18T02:30:00;111.65;;;31.92;;
14714;SDS011;7448;52.698;5.186;2022-12-18T02:32:29;101.18;;;30.08;;
14714;SDS011;7448;52.698;5.186;2022-12-18T02:34:56;101.95;;;29.73;;
14714;SDS011;7448;52.698;5.186;2022-12-18T02:37:23;108.72;;;30.30;;
14714;SDS011;7448;52.698;5.186;2022-12-18T02:39:51;117.72;;;31.23;;
14714;SDS011;7448;52.698;5.186;2022-12-18T02:42:19;104.00;;;30.25;;
14714;SDS011;7448;52.698;5.186;2022-12-18T02:44:46;105.38;;;29.77;;
14714;SDS011;7448;52.698;5.186;2022-12-18T02:47:14;92.72;;;27.75;;
14714;SDS011;7448;52.698;5.186;2022-12-18T02:57:35;100.20;;;30.35;;
14714;SDS011;7448;52.698;5.186;2022-12-18T03:00:21;107.78;;;31.05;;
14714;SDS011;7448;52.698;5.186;2022-12-18T03:05:17;89.57;;;28.80;;
14714;SDS011;7448;52.698;5.186;2022-12-18T03:07:50;101.63;;;30.13;;
14714;SDS011;7448;52.698;5.186;2022-12-18T03:10:21;104.88;;;30.98;;
14714;SDS011;7448;52.698;5.186;2022-12-18T03:13:36;90.00;;;29.08;;
14714;SDS011;7448;52.698;5.186;2022-12-18T03:15:42;114.30;;;31.38;;
14714;SDS011;7448;52.698;5.186;2022-12-18T03:18:20;114.40;;;31.35;;
14714;SDS011;7448;52.698;5.186;2022-12-18T03:20:48;101.20;;;29.45;;
14714;SDS011;7448;52.698;5.186;2022-12-18T03:23:16;99.82;;;30.92;;
14714;SDS011;7448;52.698;5.186;2022-12-18T03:25:44;98.93;;;30.92;;
14714;SDS011;7448;52.698;5.186;2022-12-18T03:28:14;116.90;;;31.63;;
14714;SDS011;7448;52.698;5.186;2022-12-18T03:30:41;102.45;;;28.45;;
14714;SDS011;7448;52.698;5.186;2022-12-18T03:35:39;82.53;;;27.50;;
14714;SDS011;7448;52.698;5.186;2022-12-18T03:38:07;100.93;;;28.35;;
14714;SDS011;7448;52.698;5.186;2022-12-18T03:40:44;96.43;;;28.63;;
14714;SDS011;7448;52.698;5.186;2022-12-18T03:43:16;97.22;;;28.45;;
14714;SDS011;7448;52.698;5.186;2022-12-18T03:45:51;132.07;;;29.63;;
14714;SDS011;7448;52.698;5.186;2022-12-18T03:48:20;97.90;;;27.05;;
14714;SDS011;7448;52.698;5.186;2022-12-18T03:53:25;101.60;;;27.42;;
14714;SDS011;7448;52.698;5.186;2022-12-18T03:55:54;102.90;;;29.08;;
14714;SDS011;7448;52.698;5.186;2022-12-18T03:58:23;93.82;;;27.25;;
14714;SDS011;7448;52.698;5.186;2022-12-18T04:00:51;93.18;;;27.63;;
14714;SDS011;7448;52.698;5.186;2022-12-18T04:03:18;93.57;;;27.77;;
14714;SDS011;7448;52.698;5.186;2022-12-18T04:05:46;94.05;;;27.65;;
14714;SDS011;7448;52.698;5.186;2022-12-18T04:08:13;107.07;;;29.38;;
14714;SDS011;7448;52.698;5.186;2022-12-18T04:10:40;96.00;;;28.88;;
14714;SDS011;7448;52.698;5.186;2022-12-18T04:13:07;104.88;;;31.08;;
14714;SDS011;7448;52.698;5.186;2022-12-18T04:15:34;91.30;;;28.75;;
14714;SDS011;7448;52.698;5.186;2022-12-18T04:18:02;90.05;;;28.17;;
14714;SDS011;7448;52.698;5.186;2022-12-18T04:20:29;97.13;;;27.67;;
14714;SDS011;7448;52.698;5.186;2022-12-18T04:22:55;109.80;;;29.58;;
14714;SDS011;7448;52.698;5.186;2022-12-18T04:25:22;107.07;;;31.48;;
14714;SDS011;7448;52.698;5.186;2022-12-18T04:27:48;100.88;;;29.25;;
14714;SDS011;7448;52.698;5.186;2022-12-18T04:30:15;110.97;;;31.05;;
14714;SDS011;7448;52.698;5.186;2022-12-18T04:32:41;99.35;;;31.00;;
14714;SDS011;7448;52.698;5.186;2022-12-18T04:35:08;115.30;;;29.40;;
14714;SDS011;7448;52.698;5.186;2022-12-18T04:37:35;100.20;;;31.42;;
14714;SDS011;7448;52.698;5.186;2022-12-18T04:40:02;100.60;;;31.73;;
14714;SDS011;7448;52.698;5.186;2022-12-18T04:42:29;100.43;;;29.73;;
14714;SDS011;7448;52.698;5.186;2022-12-18T04:44:55;105.15;;;29.85;;
14714;SDS011;7448;52.698;5.186;2022-12-18T04:47:22;107.75;;;32.03;;
14714;SDS011;7448;52.698;5.186;2022-12-18T04:49:48;109.30;;;32.97;;
14714;SDS011;7448;52.698;5.186;2022-12-18T04:52:15;105.97;;;31.75;;
14714;SDS011;7448;52.698;5.186;2022-12-18T04:54:41;96.72;;;31.58;;
14714;SDS011;7448;52.698;5.186;2022-12-18T04:57:07;104.32;;;31.02;;
14714;SDS011;7448;52.698;5.186;2022-12-18T04:59:34;96.80;;;31.45;;
14714;SDS011;7448;52.698;5.186;2022-12-18T05:02:01;98.50;;;30.90;;
14714;SDS011;7448;52.698;5.186;2022-12-18T05:04:27;102.97;;;32.95;;
14714;SDS011;7448;52.698;5.186;2022-12-18T05:06:54;94.18;;;30.85;;
14714;SDS011;7448;52.698;5.186;2022-12-18T05:09:20;104.70;;;31.67;;
14714;SDS011;7448;52.698;5.186;2022-12-18T05:11:46;110.78;;;33.08;;
14714;SDS011;7448;52.698;5.186;2022-12-18T05:14:13;98.45;;;30.23;;
14714;SDS011;7448;52.698;5.186;2022-12-18T05:16:39;106.68;;;32.85;;
14714;SDS011;7448;52.698;5.186;2022-12-18T05:19:06;110.70;;;32.65;;
14714;SDS011;7448;52.698;5.186;2022-12-18T05:21:32;90.75;;;30.02;;
14714;SDS011;7448;52.698;5.186;2022-12-18T05:23:59;103.78;;;32.75;;
14714;SDS011;7448;52.698;5.186;2022-12-18T05:26:25;106.20;;;32.70;;
14714;SDS011;7448;52.698;5.186;2022-12-18T05:28:52;97.15;;;32.67;;
14714;SDS011;7448;52.698;5.186;2022-12-18T05:31:18;102.35;;;33.45;;
14714;SDS011;7448;52.698;5.186;2022-12-18T05:33:44;101.85;;;33.83;;
14714;SDS011;7448;52.698;5.186;2022-12-18T05:36:11;99.35;;;32.08;;
14714;SDS011;7448;52.698;5.186;2022-12-18T05:38:38;98.47;;;30.10;;
14714;SDS011;7448;52.698;5.186;2022-12-18T05:41:05;96.97;;;32.20;;
14714;SDS011;7448;52.698;5.186;2022-12-18T05:43:33;99.95;;;31.27;;
14714;SDS011;7448;52.698;5.186;2022-12-18T05:46:03;97.53;;;32.88;;
14714;SDS011;7448;52.698;5.186;2022-12-18T05:48:29;98.63;;;31.70;;
14714;SDS011;7448;52.698;5.186;2022-12-18T05:50:56;104.35;;;34.28;;
14714;SDS011;7448;52.698;5.186;2022-12-18T05:53:28;100.72;;;30.85;;
14714;SDS011;7448;52.698;5.186;2022-12-18T05:55:59;97.28;;;30.77;;
14714;SDS011;7448;52.698;5.186;2022-12-18T05:58:25;92.25;;;28.30;;
14714;SDS011;7448;52.698;5.186;2022-12-18T06:00:52;90.55;;;28.88;;
14714;SDS011;7448;52.698;5.186;2022-12-18T06:03:18;96.95;;;29.38;;
14714;SDS011;7448;52.698;5.186;2022-12-18T06:05:45;87.82;;;26.90;;
14714;SDS011;7448;52.698;5.186;2022-12-18T06:08:12;82.43;;;26.42;;
14714;SDS011;7448;52.698;5.186;2022-12-18T06:10:39;77.35;;;25.67;;
14714;SDS011;7448;52.698;5.186;2022-12-18T06:13:06;79.75;;;26.55;;
14714;SDS011;7448;52.698;5.186;2022-12-18T06:15:33;95.32;;;29.08;;
14714;SDS011;7448;52.698;5.186;2022-12-18T06:18:02;79.57;;;26.02;;
14714;SDS011;7448;52.698;5.186;2022-12-18T06:20:28;83.75;;;27.77;;
14714;SDS011;7448;52.698;5.186;2022-12-18T06:22:54;79.43;;;25.95;;
14714;SDS011;7448;52.698;5.186;2022-12-18T06:25:21;87.30;;;25.70;;
14714;SDS011;7448;52.698;5.186;2022-12-18T06:27:47;87.70;;;27.42;;
14714;SDS011;7448;52.698;5.186;2022-12-18T06:30:14;85.68;;;25.90;;
14714;SDS011;7448;52.698;5.186;2022-12-18T06:32:41;82.78;;;25.27;;
14714;SDS011;7448;52.698;5.186;2022-12-18T06:35:07;84.10;;;26.70;;
14714;SDS011;7448;52.698;5.186;2022-12-18T06:37:34;82.80;;;27.48;;
14714;SDS011;7448;52.698;5.186;2022-12-18T06:40:00;75.97;;;25.95;;
14714;SDS011;7448;52.698;5.186;2022-12-18T06:42:28;75.15;;;25.00;;
14714;SDS011;7448;52.698;5.186;2022-12-18T06:44:54;78.20;;;26.05;;
14714;SDS011;7448;52.698;5.186;2022-12-18T06:47:20;89.25;;;28.23;;
14714;SDS011;7448;52.698;5.186;2022-12-18T06:49:47;88.28;;;28.75;;
14714;SDS011;7448;52.698;5.186;2022-12-18T06:52:13;80.32;;;27.23;;
14714;SDS011;7448;52.698;5.186;2022-12-18T06:54:40;88.18;;;26.10;;
14714;SDS011;7448;52.698;5.186;2022-12-18T06:57:06;76.93;;;24.67;;
14714;SDS011;7448;52.698;5.186;2022-12-18T06:59:33;72.30;;;24.42;;
14714;SDS011;7448;52.698;5.186;2022-12-18T07:01:59;66.85;;;24.27;;
14714;SDS011;7448;52.698;5.186;2022-12-18T07:04:29;70.85;;;25.75;;
14714;SDS011;7448;52.698;5.186;2022-12-18T07:06:55;84.88;;;25.65;;
14714;SDS011;7448;52.698;5.186;2022-12-18T07:09:23;70.25;;;24.88;;
14714;SDS011;7448;52.698;5.186;2022-12-18T07:11:49;84.68;;;24.30;;
14714;SDS011;7448;52.698;5.186;2022-12-18T07:14:15;67.70;;;23.70;;
14714;SDS011;7448;52.698;5.186;2022-12-18T07:16:42;66.82;;;22.77;;
14714;SDS011;7448;52.698;5.186;2022-12-18T07:19:08;66.10;;;23.35;;
14714;SDS011;7448;52.698;5.186;2022-12-18T07:21:35;66.28;;;23.00;;
14714;SDS011;7448;52.698;5.186;2022-12-18T07:24:01;64.18;;;24.13;;
14714;SDS011;7448;52.698;5.186;2022-12-18T07:26:28;62.72;;;24.27;;
14714;SDS011;7448;52.698;5.186;2022-12-18T07:28:55;75.18;;;23.83;;
14714;SDS011;7448;52.698;5.186;2022-12-18T07:31:23;55.47;;;22.08;;
14714;SDS011;7448;52.698;5.186;2022-12-18T07:33:50;61.65;;;22.60;;
14714;SDS011;7448;52.698;5.186;2022-12-18T07:36:17;65.85;;;22.15;;
14714;SDS011;7448;52.698;5.186;2022-12-18T07:38:46;59.10;;;21.98;;
14714;SDS011;7448;52.698;5.186;2022-12-18T07:41:12;57.85;;;21.90;;
14714;SDS011;7448;52.698;5.186;2022-12-18T07:43:40;50.08;;;20.85;;
14714;SDS011;7448;52.698;5.186;2022-12-18T07:46:07;55.50;;;20.38;;
14714;SDS011;7448;52.698;5.186;2022-12-18T07:48:34;51.03;;;19.88;;
14714;SDS011;7448;52.698;5.186;2022-12-18T07:51:01;52.83;;;20.98;;
14714;SDS011;7448;52.698;5.186;2022-12-18T07:53:28;58.00;;;21.30;;
14714;SDS011;7448;52.698;5.186;2022-12-18T07:55:55;54.50;;;20.98;;
14714;SDS011;7448;52.698;5.186;2022-12-18T07:58:22;67.05;;;22.83;;
14714;SDS011;7448;52.698;5.186;2022-12-18T08:00:48;55.67;;;20.95;;
14714;SDS011;7448;52.698;5.186;2022-12-18T08:03:15;44.20;;;19.75;;
14714;SDS011;7448;52.698;5.186;2022-12-18T08:05:41;53.83;;;22.15;;
14714;SDS011;7448;52.698;5.186;2022-12-18T08:08:07;48.22;;;20.73;;
14714;SDS011;7448;52.698;5.186;2022-12-18T08:10:34;54.47;;;21.95;;
14714;SDS011;7448;52.698;5.186;2022-12-18T08:13:00;52.03;;;20.42;;
14714;SDS011;7448;52.698;5.186;2022-12-18T08:15:27;50.63;;;20.23;;
14714;SDS011;7448;52.698;5.186;2022-12-18T08:17:56;48.70;;;20.35;;
14714;SDS011;7448;52.698;5.186;2022-12-18T08:20:22;57.22;;;21.58;;
14714;SDS011;7448;52.698;5.186;2022-12-18T08:22:49;42.78;;;20.27;;
14714;SDS011;7448;52.698;5.186;2022-12-18T08:25:15;48.55;;;20.42;;
14714;SDS011;7448;52.698;5.186;2022-12-18T08:27:41;51.38;;;19.90;;
14714;SDS011;7448;52.698;5.186;2022-12-18T08:30:08;52.63;;;19.23;;
14714;SDS011;7448;52.698;5.186;2022-12-18T08:32:35;44.67;;;19.67;;
14714;SDS011;7448;52.698;5.186;2022-12-18T08:35:01;50.40;;;20.30;;
14714;SDS011;7448;52.698;5.186;2022-12-18T08:37:28;48.97;;;20.55;;
14714;SDS011;7448;52.698;5.186;2022-12-18T08:39:54;50.38;;;21.20;;
14714;SDS011;7448;52.698;5.186;2022-12-18T08:42:21;48.65;;;19.73;;
14714;SDS011;7448;52.698;5.186;2022-12-18T08:45:06;50.40;;;20.17;;
14714;SDS011;7448;52.698;5.186;2022-12-18T08:47:33;52.92;;;21.58;;
14714;SDS011;7448;52.698;5.186;2022-12-18T08:49:59;49.65;;;20.88;;
14714;SDS011;7448;52.698;5.186;2022-12-18T08:52:25;50.15;;;20.25;;
14714;SDS011;7448;52.698;5.186;2022-12-18T08:54:53;49.90;;;20.10;;
14714;SDS011;7448;52.698;5.186;2022-12-18T08:57:20;49.28;;;20.58;;
14714;SDS011;7448;52.698;5.186;2022-12-18T08:59:46;50.70;;;20.70;;
14714;SDS011;7448;52.698;5.186;2022-12-18T09:02:13;46.30;;;18.98;;
14714;SDS011;7448;52.698;5.186;2022-12-18T09:04:40;44.13;;;18.58;;
14714;SDS011;7448;52.698;5.186;2022-12-18T09:07:06;41.15;;;18.83;;
14714;SDS011;7448;52.698;5.186;2022-12-18T09:09:33;48.90;;;19.42;;
14714;SDS011;7448;52.698;5.186;2022-12-18T09:11:59;40.85;;;17.67;;
14714;SDS011;7448;52.698;5.186;2022-12-18T09:14:26;42.85;;;18.90;;
14714;SDS011;7448;52.698;5.186;2022-12-18T09:16:52;39.25;;;17.40;;
14714;SDS011;7448;52.698;5.186;2022-12-18T09:19:19;39.28;;;16.85;;
14714;SDS011;7448;52.698;5.186;2022-12-18T09:21:45;42.00;;;18.35;;
14714;SDS011;7448;52.698;5.186;2022-12-18T09:24:12;38.88;;;16.42;;
14714;SDS011;7448;52.698;5.186;2022-12-18T09:26:39;38.35;;;17.35;;
14714;SDS011;7448;52.698;5.186;2022-12-18T09:29:05;43.22;;;16.58;;
14714;SDS011;7448;52.698;5.186;2022-12-18T09:31:32;41.90;;;17.55;;
14714;SDS011;7448;52.698;5.186;2022-12-18T09:33:59;39.17;;;16.77;;
14714;SDS011;7448;52.698;5.186;2022-12-18T09:36:25;32.75;;;14.88;;
14714;SDS011;7448;52.698;5.186;2022-12-18T09:38:52;37.13;;;14.60;;
14714;SDS011;7448;52.698;5.186;2022-12-18T09:49:18;29.83;;;13.13;;
14714;SDS011;7448;52.698;5.186;2022-12-18T09:52:32;33.28;;;13.85;;
14714;SDS011;7448;52.698;5.186;2022-12-18T09:54:33;29.25;;;13.63;;
14714;SDS011;7448;52.698;5.186;2022-12-18T09:57:01;32.55;;;14.40;;
14714;SDS011;7448;52.698;5.186;2022-12-18T09:59:35;33.60;;;13.68;;
14714;SDS011;7448;52.698;5.186;2022-12-18T10:02:15;30.17;;;13.73;;
14714;SDS011;7448;52.698;5.186;2022-12-18T10:04:42;29.40;;;13.52;;
14714;SDS011;7448;52.698;5.186;2022-12-18T10:07:13;25.73;;;12.20;;
14714;SDS011;7448;52.698;5.186;2022-12-18T10:09:43;29.95;;;13.50;;
14714;SDS011;7448;52.698;5.186;2022-12-18T10:14:59;29.02;;;13.32;;
14714;SDS011;7448;52.698;5.186;2022-12-18T10:17:32;26.75;;;11.13;;
14714;SDS011;7448;52.698;5.186;2022-12-18T10:22:52;27.05;;;12.43;;
14714;SDS011;7448;52.698;5.186;2022-12-18T10:27:46;29.45;;;12.48;;
14714;SDS011;7448;52.698;5.186;2022-12-18T10:30:14;29.05;;;11.95;;
14714;SDS011;7448;52.698;5.186;2022-12-18T10:32:40;28.02;;;12.98;;
14714;SDS011;7448;52.698;5.186;2022-12-18T10:35:10;27.08;;;11.68;;
14714;SDS011;7448;52.698;5.186;2022-12-18T10:37:58;28.33;;;12.30;;
14714;SDS011;7448;52.698;5.186;2022-12-18T10:40:26;24.85;;;11.70;;
14714;SDS011;7448;52.698;5.186;2022-12-18T10:43:12;26.85;;;11.60;;
14714;SDS011;7448;52.698;5.186;2022-12-18T10:45:40;23.25;;;10.98;;
14714;SDS011;7448;52.698;5.186;2022-12-18T10:48:19;26.45;;;11.43;;
14714;SDS011;7448;52.698;5.186;2022-12-18T10:50:47;25.33;;;10.73;;
14714;SDS011;7448;52.698;5.186;2022-12-18T10:53:20;27.25;;;11.13;;
14714;SDS011;7448;52.698;5.186;2022-12-18T10:55:47;26.75;;;11.18;;
14714;SDS011;7448;52.698;5.186;2022-12-18T10:58:22;25.08;;;11.45;;
14714;SDS011;7448;52.698;5.186;2022-12-18T11:03:30;24.42;;;11.15;;
14714;SDS011;7448;52.698;5.186;2022-12-18T11:06:04;24.45;;;11.48;;
14714;SDS011;7448;52.698;5.186;2022-12-18T11:08:32;25.55;;;11.10;;
14714;SDS011;7448;52.698;5.186;2022-12-18T11:10:58;23.77;;;10.93;;
14714;SDS011;7448;52.698;5.186;2022-12-18T11:13:26;23.20;;;10.55;;
14714;SDS011;7448;52.698;5.186;2022-12-18T11:15:54;25.95;;;10.88;;
14714;SDS011;7448;52.698;5.186;2022-12-18T11:18:31;28.60;;;11.23;;
14714;SDS011;7448;52.698;5.186;2022-12-18T11:21:00;22.83;;;11.00;;
14714;SDS011;7448;52.698;5.186;2022-12-18T11:23:28;24.63;;;10.70;;
14714;SDS011;7448;52.698;5.186;2022-12-18T11:25:55;28.10;;;10.70;;
14714;SDS011;7448;52.698;5.186;2022-12-18T11:33:37;23.40;;;10.77;;
14714;SDS011;7448;52.698;5.186;2022-12-18T11:36:05;26.73;;;10.70;;
14714;SDS011;7448;52.698;5.186;2022-12-18T11:38:35;21.27;;;10.27;;
14714;SDS011;7448;52.698;5.186;2022-12-18T11:41:04;20.80;;;10.07;;
14714;SDS011;7448;52.698;5.186;2022-12-18T11:43:32;22.08;;;9.65;;
14714;SDS011;7448;52.698;5.186;2022-12-18T11:46:07;23.40;;;10.18;;
14714;SDS011;7448;52.698;5.186;2022-12-18T11:48:38;24.48;;;10.48;;
14714;SDS011;7448;52.698;5.186;2022-12-18T11:51:09;21.55;;;10.57;;
14714;SDS011;7448;52.698;5.186;2022-12-18T11:53:38;25.10;;;10.93;;
14714;SDS011;7448;52.698;5.186;2022-12-18T11:58:46;24.40;;;10.35;;
14714;SDS011;7448;52.698;5.186;2022-12-18T12:09:07;21.73;;;10.25;;
14714;SDS011;7448;52.698;5.186;2022-12-18T12:17:03;20.15;;;10.00;;
14714;SDS011;7448;52.698;5.186;2022-12-18T12:35:25;20.15;;;9.55;;
14714;SDS011;7448;52.698;5.186;2022-12-18T12:40:37;20.55;;;9.00;;
14714;SDS011;7448;52.698;5.186;2022-12-18T12:43:41;19.10;;;9.25;;
14714;SDS011;7448;52.698;5.186;2022-12-18T12:45:59;19.50;;;9.30;;
14714;SDS011;7448;52.698;5.186;2022-12-18T12:48:43;23.70;;;11.13;;
14714;SDS011;7448;52.698;5.186;2022-12-18T12:51:14;22.02;;;10.13;;
14714;SDS011;7448;52.698;5.186;2022-12-18T12:53:41;20.25;;;9.25;;
14714;SDS011;7448;52.698;5.186;2022-12-18T12:56:08;20.60;;;10.13;;
14714;SDS011;7448;52.698;5.186;2022-12-18T13:01:10;24.48;;;10.93;;
14714;SDS011;7448;52.698;5.186;2022-12-18T13:03:56;22.75;;;9.80;;
14714;SDS011;7448;52.698;5.186;2022-12-18T13:09:08;22.05;;;10.02;;
14714;SDS011;7448;52.698;5.186;2022-12-18T13:11:44;25.92;;;10.93;;
14714;SDS011;7448;52.698;5.186;2022-12-18T13:20:07;20.05;;;9.68;;
14714;SDS011;7448;52.698;5.186;2022-12-18T13:22:36;22.73;;;9.73;;
14714;SDS011;7448;52.698;5.186;2022-12-18T13:25:03;19.85;;;9.50;;
14714;SDS011;7448;52.698;5.186;2022-12-18T13:43:22;22.33;;;9.52;;
14714;SDS011;7448;52.698;5.186;2022-12-18T13:45:59;20.55;;;9.75;;
14714;SDS011;7448;52.698;5.186;2022-12-18T13:48:26;23.30;;;9.57;;
14714;SDS011;7448;52.698;5.186;2022-12-18T13:53:30;21.02;;;9.65;;
14714;SDS011;7448;52.698;5.186;2022-12-18T13:55:58;18.80;;;9.85;;
14714;SDS011;7448;52.698;5.186;2022-12-18T13:58:24;23.08;;;10.57;;
14714;SDS011;7448;52.698;5.186;2022-12-18T14:00:51;22.15;;;9.98;;
14714;SDS011;7448;52.698;5.186;2022-12-18T14:03:22;20.80;;;9.75;;
14714;SDS011;7448;52.698;5.186;2022-12-18T14:05:53;24.75;;;11.02;;
14714;SDS011;7448;52.698;5.186;2022-12-18T14:08:26;23.80;;;10.13;;
14714;SDS011;7448;52.698;5.186;2022-12-18T14:10:53;19.98;;;9.85;;
14714;SDS011;7448;52.698;5.186;2022-12-18T14:13:24;22.55;;;10.68;;
14714;SDS011;7448;52.698;5.186;2022-12-18T14:15:53;23.67;;;10.98;;
14714;SDS011;7448;52.698;5.186;2022-12-18T14:18:24;20.67;;;10.30;;
14714;SDS011;7448;52.698;5.186;2022-12-18T14:20:53;22.95;;;10.43;;
14714;SDS011;7448;52.698;5.186;2022-12-18T14:23:31;26.63;;;10.90;;
14714;SDS011;7448;52.698;5.186;2022-12-18T14:25:58;26.52;;;10.95;;
14714;SDS011;7448;52.698;5.186;2022-12-18T14:28:25;19.58;;;10.07;;
14714;SDS011;7448;52.698;5.186;2022-12-18T14:30:52;24.10;;;10.57;;
14714;SDS011;7448;52.698;5.186;2022-12-18T14:33:27;21.25;;;10.02;;
14714;SDS011;7448;52.698;5.186;2022-12-18T14:35:56;19.95;;;9.52;;
14714;SDS011;7448;52.698;5.186;2022-12-18T14:38:25;24.20;;;11.23;;
14714;SDS011;7448;52.698;5.186;2022-12-18T14:41:01;22.55;;;10.80;;
14714;SDS011;7448;52.698;5.186;2022-12-18T14:43:29;20.60;;;9.18;;
14714;SDS011;7448;52.698;5.186;2022-12-18T14:45:58;21.15;;;11.05;;
14714;SDS011;7448;52.698;5.186;2022-12-18T14:48:35;25.50;;;10.43;;
14714;SDS011;7448;52.698;5.186;2022-12-18T14:51:21;23.23;;;10.10;;
14714;SDS011;7448;52.698;5.186;2022-12-18T14:53:58;23.65;;;10.73;;
14714;SDS011;7448;52.698;5.186;2022-12-18T14:56:30;20.48;;;10.52;;
14714;SDS011;7448;52.698;5.186;2022-12-18T14:59:12;24.05;;;10.52;;
14714;SDS011;7448;52.698;5.186;2022-12-18T15:07:02;20.77;;;10.27;;
14714;SDS011;7448;52.698;5.186;2022-12-18T15:09:28;26.55;;;11.15;;
14714;SDS011;7448;52.698;5.186;2022-12-18T15:12:00;23.98;;;9.85;;
14714;SDS011;7448;52.698;5.186;2022-12-18T15:16:57;20.77;;;10.13;;
14714;SDS011;7448;52.698;5.186;2022-12-18T15:22:21;25.35;;;10.48;;
14714;SDS011;7448;52.698;5.186;2022-12-18T15:24:49;22.90;;;9.48;;
14714;SDS011;7448;52.698;5.186;2022-12-18T15:27:23;23.75;;;10.02;;
14714;SDS011;7448;52.698;5.186;2022-12-18T15:32:50;26.63;;;10.95;;
14714;SDS011;7448;52.698;5.186;2022-12-18T15:35:21;19.98;;;9.43;;
14714;SDS011;7448;52.698;5.186;2022-12-18T15:37:48;23.67;;;11.10;;
14714;SDS011;7448;52.698;5.186;2022-12-18T15:40:16;22.15;;;10.35;;
14714;SDS011;7448;52.698;5.186;2022-12-18T15:42:43;21.27;;;9.73;;
14714;SDS011;7448;52.698;5.186;2022-12-18T15:45:28;25.30;;;10.40;;
14714;SDS011;7448;52.698;5.186;2022-12-18T15:47:54;23.50;;;10.10;;
14714;SDS011;7448;52.698;5.186;2022-12-18T15:50:21;24.88;;;11.48;;
14714;SDS011;7448;52.698;5.186;2022-12-18T15:52:48;22.33;;;10.05;;
14714;SDS011;7448;52.698;5.186;2022-12-18T15:55:20;25.80;;;10.73;;
14714;SDS011;7448;52.698;5.186;2022-12-18T15:58:06;25.88;;;10.52;;
14714;SDS011;7448;52.698;5.186;2022-12-18T16:00:33;21.40;;;9.85;;
14714;SDS011;7448;52.698;5.186;2022-12-18T16:03:00;27.52;;;11.85;;
14714;SDS011;7448;52.698;5.186;2022-12-18T16:05:26;22.13;;;10.45;;
14714;SDS011;7448;52.698;5.186;2022-12-18T16:07:53;22.27;;;9.82;;
14714;SDS011;7448;52.698;5.186;2022-12-18T16:10:20;22.55;;;10.35;;
14714;SDS011;7448;52.698;5.186;2022-12-18T16:12:46;24.90;;;10.85;;
14714;SDS011;7448;52.698;5.186;2022-12-18T16:15:13;23.60;;;10.07;;
14714;SDS011;7448;52.698;5.186;2022-12-18T16:17:44;20.85;;;10.18;;
14714;SDS011;7448;52.698;5.186;2022-12-18T16:20:17;25.52;;;10.30;;
14714;SDS011;7448;52.698;5.186;2022-12-18T16:22:44;27.02;;;11.55;;
14714;SDS011;7448;52.698;5.186;2022-12-18T16:25:15;22.73;;;10.85;;
14714;SDS011;7448;52.698;5.186;2022-12-18T16:27:43;23.55;;;10.68;;
14714;SDS011;7448;52.698;5.186;2022-12-18T16:30:13;25.02;;;11.07;;
14714;SDS011;7448;52.698;5.186;2022-12-18T16:32:40;25.85;;;9.70;;
14714;SDS011;7448;52.698;5.186;2022-12-18T16:35:08;21.58;;;11.45;;
14714;SDS011;7448;52.698;5.186;2022-12-18T16:37:35;21.50;;;9.98;;
14714;SDS011;7448;52.698;5.186;2022-12-18T16:40:01;23.48;;;10.35;;
14714;SDS011;7448;52.698;5.186;2022-12-18T16:42:28;24.77;;;11.07;;
14714;SDS011;7448;52.698;5.186;2022-12-18T16:44:54;22.80;;;10.40;;